Tenacious — ZQHM2 — position and weather

sailwx.info

Track history (hours):
 
Tides and Currents Weather Stations Pressure Air Temp Water Temp Dewpoint Dewpoint Depression Visibility Wind Speed Wind Dir Waves Ship Positions

Tenacious (United Kingdom)

Ship's website: http://www.jst.org.uk/

Last reported at 2020-Apr-04 15:00 UTC. Time now 2020-Apr-05 22:51 UTC.
Position N 47°30' W 018°30'.

Length 65 m; beam 10.6 m; draft 4.6 m.

Type: Sailing vessel. MMSI: 235000230.

Wind from 140 at 28 knots

Barometer 988.1 mb
Air temperature 12.8 ° C
Dewpoint 12.2 ° C

Date/timePositionNaut miles runAvg speedWind from/ knotsBaromVisibWave heightAir tempDewpointWater temp
2020-Apr-04 15:00N 47°30' W 018°30'85 7.1 140 / 28988.1 12.812.2
2020-Apr-04 03:00N 46°24' W 019°48'98 8.1 160 / 33996.1 14.814.3
2020-Apr-03 15:00N 44°54' W 020°42'76 6.4 130 / 351004.0 12.311.2
2020-Apr-03 03:00N 43°54' W 021°48'   120 / 361011.0
2020-Mar-30 10:26N 37°44' W 025°40'1 0.2
2020-Mar-30 07:40N 37°44' W 025°40'0 0.0
2020-Mar-30 05:28N 37°44' W 025°40'0 0.0
2020-Mar-30 04:25N 37°44' W 025°40'0 0.0
2020-Mar-30 01:27N 37°44' W 025°40'0 0.0
2020-Mar-29 22:15N 37°44' W 025°40'0 0.0
2020-Mar-29 21:03N 37°44' W 025°40'0 0.0
2020-Mar-29 18:55N 37°44' W 025°40'0 0.0
2020-Mar-29 17:22N 37°44' W 025°40'0 0.0
2020-Mar-28 02:30N 37°44' W 025°40'0 0.0
2020-Mar-26 21:30N 37°44' W 025°40'0 0.0
2020-Mar-26 21:00N 37°44' W 025°40'0 0.0
2020-Mar-26 18:00N 37°44' W 025°40'0 0.0
2020-Mar-26 17:30N 37°44' W 025°40'0 0.0
2020-Mar-26 15:00N 37°44' W 025°40'0 0.0
2020-Mar-26 13:30N 37°44' W 025°40'4 1.8
2020-Mar-26 11:00N 37°40' W 025°42'1 1.0
2020-Mar-26 10:00N 37°40' W 025°43'1 1.7
2020-Mar-26 09:30N 37°40' W 025°44'9 5.8
2020-Mar-26 07:59N 37°31' W 025°46'3 5.9
2020-Mar-26 07:30N 37°28' W 025°47'3 5.6
2020-Mar-26 07:00N 37°26' W 025°48'3 5.7
2020-Mar-26 06:30N 37°23' W 025°49'3 5.1
2020-Mar-26 06:00N 37°20' W 025°50'3 5.4
2020-Mar-26 05:30N 37°18' W 025°50'6 5.7
2020-Mar-26 04:28N 37°12' W 025°51'5 5.2
2020-Mar-26 03:28N 37°07' W 025°51'21 4.8
2020-Mar-25 23:00N 36°45' W 025°50'  
Track history (hours):
 
Tides and Currents Weather Stations Pressure Air Temp Water Temp Dewpoint Dewpoint Depression Visibility Wind Speed Wind Dir Waves Ship Positions

Tenacious (United Kingdom)

Ship's website: http://www.jst.org.uk/

Last reported at 2020-Apr-04 15:00 UTC. Time now 2020-Apr-05 22:51 UTC.
Position N 47°30' W 018°30'.

Length 65 m; beam 10.6 m; draft 4.6 m.

Type: Sailing vessel. MMSI: 235000230.

Wind from 140 at 28 knots

Barometer 988.1 mb
Air temperature 12.8 ° C
Dewpoint 12.2 ° C

Date/timePositionNaut miles runAvg speedWind from/ knotsBaromVisibWave heightAir tempDewpointWater temp
2020-Apr-04 15:00N 47°30' W 018°30'85 7.1 140 / 28988.1 12.812.2
2020-Apr-04 03:00N 46°24' W 019°48'98 8.1 160 / 33996.1 14.814.3
2020-Apr-03 15:00N 44°54' W 020°42'76 6.4 130 / 351004.0 12.311.2
2020-Apr-03 03:00N 43°54' W 021°48'   120 / 361011.0
2020-Mar-30 10:26N 37°44' W 025°40'1 0.2
2020-Mar-30 07:40N 37°44' W 025°40'0 0.0
2020-Mar-30 05:28N 37°44' W 025°40'0 0.0
2020-Mar-30 04:25N 37°44' W 025°40'0 0.0
2020-Mar-30 01:27N 37°44' W 025°40'0 0.0
2020-Mar-29 22:15N 37°44' W 025°40'0 0.0
2020-Mar-29 21:03N 37°44' W 025°40'0 0.0
2020-Mar-29 18:55N 37°44' W 025°40'0 0.0
2020-Mar-29 17:22N 37°44' W 025°40'0 0.0
2020-Mar-28 02:30N 37°44' W 025°40'0 0.0
2020-Mar-26 21:30N 37°44' W 025°40'0 0.0
2020-Mar-26 21:00N 37°44' W 025°40'0 0.0
2020-Mar-26 18:00N 37°44' W 025°40'0 0.0
2020-Mar-26 17:30N 37°44' W 025°40'0 0.0
2020-Mar-26 15:00N 37°44' W 025°40'0 0.0
2020-Mar-26 13:30N 37°44' W 025°40'4 1.8
2020-Mar-26 11:00N 37°40' W 025°42'1 1.0
2020-Mar-26 10:00N 37°40' W 025°43'1 1.7
2020-Mar-26 09:30N 37°40' W 025°44'9 5.8
2020-Mar-26 07:59N 37°31' W 025°46'3 5.9
2020-Mar-26 07:30N 37°28' W 025°47'3 5.6
2020-Mar-26 07:00N 37°26' W 025°48'3 5.7
2020-Mar-26 06:30N 37°23' W 025°49'3 5.1
2020-Mar-26 06:00N 37°20' W 025°50'3 5.4
2020-Mar-26 05:30N 37°18' W 025°50'6 5.7
2020-Mar-26 04:28N 37°12' W 025°51'5 5.2
2020-Mar-26 03:28N 37°07' W 025°51'21 4.8
2020-Mar-25 23:00N 36°45' W 025°50'  

Dump ship's entire track history